Time;durP1;ratioP1;P1;durP2;ratioP2;P2;SDS_P1;SDS_P2;PMS_P1;PMS_P2;Temp;Humidity;BMP_temperature;BMP_pressure;BME280_temperature;BME280_humidity;BME280_pressure;Samples;Min_cycle;Max_cycle;Signal;HPM_P1;HPM_P2
2023/11/06 00:00:43;;;;;;;11.27;2.70;;;;;;;;;;5115559;28;20469;-29
2023/11/06 00:03:08;;;;;;;10.38;3.35;;;;;;;;;;5096947;28;20087;-29
2023/11/06 00:05:35;;;;;;;8.77;2.33;;;;;;;;;;5115715;28;20019;-29
2023/11/06 00:08:00;;;;;;;12.27;2.88;;;;;;;;;;5115395;28;20249;-29
2023/11/06 00:10:26;;;;;;;13.13;2.87;;;;;;;;;;5115060;28;20020;-29
2023/11/06 00:12:51;;;;;;;11.35;2.70;;;;;;;;;;5114854;28;20306;-29
2023/11/06 00:15:16;;;;;;;15.25;2.67;;;;;;;;;;5115171;28;20031;-29
2023/11/06 00:17:42;;;;;;;13.00;2.53;;;;;;;;;;5115178;28;20019;-29
2023/11/06 00:20:10;;;;;;;10.52;2.63;;;;;;;;;;5114743;28;20027;-29
2023/11/06 00:22:36;;;;;;;8.32;2.20;;;;;;;;;;5115399;28;20008;-29
2023/11/06 00:25:01;;;;;;;10.05;2.60;;;;;;;;;;5114714;28;20008;-29
2023/11/06 00:27:26;;;;;;;9.95;2.20;;;;;;;;;;5114958;28;20426;-29
2023/11/06 00:29:52;;;;;;;11.33;2.57;;;;;;;;;;5114698;28;20394;-29
2023/11/06 00:32:17;;;;;;;9.23;2.20;;;;;;;;;;5114964;28;20280;-29
2023/11/06 00:34:42;;;;;;;5.75;2.10;;;;;;;;;;5114441;28;20027;-29
2023/11/06 00:37:07;;;;;;;5.40;2.28;;;;;;;;;;5096514;28;20024;-29
2023/11/06 00:39:35;;;;;;;11.77;2.43;;;;;;;;;;5114430;28;20484;-29
2023/11/06 00:42:01;;;;;;;9.60;2.08;;;;;;;;;;5114733;28;20601;-29
2023/11/06 00:44:26;;;;;;;10.23;2.28;;;;;;;;;;5114991;28;20016;-29
2023/11/06 00:46:51;;;;;;;12.37;2.50;;;;;;;;;;5114409;28;20051;-29
2023/11/06 00:49:16;;;;;;;11.93;2.45;;;;;;;;;;5114316;28;20248;-29
2023/11/06 00:51:41;;;;;;;9.43;1.93;;;;;;;;;;5114515;28;20051;-29
2023/11/06 00:54:06;;;;;;;11.17;2.57;;;;;;;;;;5114288;28;20254;-29
2023/11/06 00:56:32;;;;;;;4.90;1.70;;;;;;;;;;5114237;28;20257;-29
2023/11/06 00:58:58;;;;;;;9.88;1.88;;;;;;;;;;5114189;28;20430;-29
2023/11/06 01:01:23;;;;;;;6.82;1.90;;;;;;;;;;5114431;28;20015;-29
2023/11/06 01:03:48;;;;;;;11.30;2.33;;;;;;;;;;5114129;28;20121;-29
2023/11/06 01:06:13;;;;;;;9.05;2.20;;;;;;;;;;5114287;28;20012;-29
2023/11/06 01:08:39;;;;;;;9.00;1.97;;;;;;;;;;5114357;28;20492;-29
2023/11/06 01:11:05;;;;;;;7.47;2.47;;;;;;;;;;5113826;28;20261;-29
2023/11/06 01:13:30;;;;;;;9.38;2.30;;;;;;;;;;5114241;28;20020;-29
2023/11/06 01:15:57;;;;;;;11.63;2.15;;;;;;;;;;5114459;28;20102;-29
2023/11/06 01:18:22;;;;;;;8.38;1.90;;;;;;;;;;5113786;28;20024;-29
2023/11/06 01:20:47;;;;;;;9.65;1.80;;;;;;;;;;5114162;28;20454;-29
2023/11/06 01:23:13;;;;;;;7.73;2.10;;;;;;;;;;5113876;28;20199;-29
2023/11/06 01:25:42;;;;;;;8.63;2.07;;;;;;;;;;5113863;28;20245;-29
2023/11/06 01:28:08;;;;;;;6.25;1.90;;;;;;;;;;5113820;28;20241;-29
2023/11/06 01:30:33;;;;;;;7.90;2.15;;;;;;;;;;5114276;28;20378;-29
2023/11/06 01:33:00;;;;;;;7.43;1.63;;;;;;;;;;5113760;28;20374;-29
2023/11/06 01:35:26;;;;;;;11.52;1.80;;;;;;;;;;5113960;28;20257;-29
2023/11/06 01:37:51;;;;;;;6.38;1.80;;;;;;;;;;5113761;28;20026;-29
2023/11/06 01:40:17;;;;;;;6.90;1.77;;;;;;;;;;5114814;28;20342;-30
2023/11/06 01:42:42;;;;;;;5.63;1.80;;;;;;;;;;5113703;28;20260;-34
2023/11/06 01:45:07;;;;;;;8.82;1.90;;;;;;;;;;5115379;28;20012;-29
2023/11/06 01:47:33;;;;;;;6.45;1.70;;;;;;;;;;5118378;28;20438;-29
2023/11/06 01:49:58;;;;;;;6.43;1.80;;;;;;;;;;5117826;28;20094;-29
2023/11/06 01:52:24;;;;;;;4.75;1.80;;;;;;;;;;5117665;28;20055;-29
2023/11/06 01:54:49;;;;;;;5.93;2.25;;;;;;;;;;5118243;28;20023;-29
2023/11/06 01:57:16;;;;;;;7.78;2.50;;;;;;;;;;5117936;28;20098;-30
2023/11/06 01:59:42;;;;;;;3.75;2.13;;;;;;;;;;5117576;28;20030;-29
2023/11/06 02:02:07;;;;;;;8.82;2.80;;;;;;;;;;5117921;28;20016;-33
2023/11/06 02:04:32;;;;;;;7.90;2.38;;;;;;;;;;5117537;28;20039;-28
2023/11/06 02:06:58;;;;;;;6.85;2.60;;;;;;;;;;5117807;28;20015;-29
2023/11/06 02:09:25;;;;;;;6.88;2.65;;;;;;;;;;5117455;28;20020;-29
2023/11/06 02:11:50;;;;;;;6.95;2.75;;;;;;;;;;5117635;28;20459;-29
2023/11/06 02:14:16;;;;;;;6.75;2.58;;;;;;;;;;5117361;28;20023;-29
2023/11/06 02:16:41;;;;;;;9.37;2.73;;;;;;;;;;5117372;28;20030;-29
2023/11/06 02:19:07;;;;;;;10.13;3.55;;;;;;;;;;5117117;28;20281;-29
2023/11/06 02:21:35;;;;;;;6.40;2.78;;;;;;;;;;5117789;28;20016;-29
2023/11/06 02:24:00;;;;;;;5.40;2.45;;;;;;;;;;5117401;28;20027;-29
2023/11/06 02:26:26;;;;;;;8.82;3.13;;;;;;;;;;5117077;28;20016;-29
2023/11/06 02:28:52;;;;;;;7.03;2.58;;;;;;;;;;5117651;28;20019;-31
2023/11/06 02:31:17;;;;;;;10.90;2.90;;;;;;;;;;5117586;28;20527;-29
2023/11/06 02:33:42;;;;;;;5.25;2.97;;;;;;;;;;5117036;28;20047;-29
2023/11/06 02:36:08;;;;;;;9.60;3.28;;;;;;;;;;5117455;28;20015;-29
2023/11/06 02:38:33;;;;;;;8.38;3.35;;;;;;;;;;5116736;28;20026;-29
2023/11/06 02:40:58;;;;;;;8.50;3.47;;;;;;;;;;5116863;28;20043;-29
2023/11/06 02:43:23;;;;;;;8.47;3.30;;;;;;;;;;5116841;28;20727;-29
2023/11/06 02:45:48;;;;;;;9.67;3.50;;;;;;;;;;5117315;28;20340;-29
2023/11/06 02:48:14;;;;;;;14.18;4.00;;;;;;;;;;5116660;28;20608;-29
2023/11/06 02:50:39;;;;;;;13.10;4.00;;;;;;;;;;5116676;28;20016;-29
2023/11/06 02:53:04;;;;;;;12.67;4.00;;;;;;;;;;5116449;28;20322;-29
2023/11/06 02:55:29;;;;;;;11.50;3.70;;;;;;;;;;5116484;28;20767;-29
2023/11/06 02:57:54;;;;;;;10.73;4.20;;;;;;;;;;5116580;28;20253;-29
2023/11/06 03:00:20;;;;;;;12.10;4.10;;;;;;;;;;5116672;28;20813;-29
2023/11/06 03:02:46;;;;;;;11.60;4.00;;;;;;;;;;5117060;28;20443;-33
2023/11/06 03:05:11;;;;;;;23.93;4.50;;;;;;;;;;5116992;28;20022;-34
2023/11/06 03:07:36;;;;;;;12.55;4.20;;;;;;;;;;5116750;28;20261;-34
2023/11/06 03:10:02;;;;;;;11.68;3.65;;;;;;;;;;5116300;28;20462;-35
2023/11/06 03:12:27;;;;;;;13.55;3.72;;;;;;;;;;5116432;28;20053;-34
2023/11/06 03:14:52;;;;;;;17.63;3.40;;;;;;;;;;5116455;28;20011;-35
2023/11/06 03:17:18;;;;;;;11.60;3.23;;;;;;;;;;5116108;28;20263;-34
2023/11/06 03:19:43;;;;;;;10.38;3.47;;;;;;;;;;5115973;28;20278;-35
2023/11/06 03:22:08;;;;;;;11.53;3.30;;;;;;;;;;5116086;28;20378;-34
2023/11/06 03:24:33;;;;;;;8.00;2.83;;;;;;;;;;5116003;28;20244;-35
2023/11/06 03:26:58;;;;;;;7.77;3.00;;;;;;;;;;5115912;28;20310;-35
2023/11/06 03:29:24;;;;;;;7.47;2.87;;;;;;;;;;5115913;28;20353;-34
2023/11/06 03:31:51;;;;;;;10.63;3.10;;;;;;;;;;5097896;28;20262;-33
2023/11/06 03:34:16;;;;;;;9.13;2.47;;;;;;;;;;5116088;28;20028;-35
2023/11/06 03:36:42;;;;;;;8.55;2.42;;;;;;;;;;5116292;28;20047;-35
2023/11/06 03:39:08;;;;;;;5.13;2.45;;;;;;;;;;5115968;28;20011;-34
2023/11/06 03:41:33;;;;;;;8.40;2.60;;;;;;;;;;5116216;28;20012;-35
2023/11/06 03:43:58;;;;;;;11.02;3.20;;;;;;;;;;5115933;28;20008;-35
2023/11/06 03:46:25;;;;;;;12.02;3.40;;;;;;;;;;5115821;28;20473;-35
2023/11/06 03:48:50;;;;;;;11.20;4.10;;;;;;;;;;5115560;28;20466;-35
2023/11/06 03:51:15;;;;;;;10.98;3.75;;;;;;;;;;5115303;28;20027;-33
2023/11/06 03:53:41;;;;;;;8.88;3.50;;;;;;;;;;5115722;28;20023;-34
2023/11/06 03:56:07;;;;;;;9.07;3.28;;;;;;;;;;5115685;28;20032;-35
2023/11/06 03:58:32;;;;;;;9.75;3.15;;;;;;;;;;5115263;28;20015;-42
2023/11/06 04:00:57;;;;;;;11.60;3.72;;;;;;;;;;5115483;28;20455;-34
2023/11/06 04:03:22;;;;;;;17.20;3.47;;;;;;;;;;5115776;28;20039;-34
2023/11/06 04:05:48;;;;;;;7.83;2.83;;;;;;;;;;5115141;28;20348;-34
2023/11/06 04:08:13;;;;;;;10.30;2.47;;;;;;;;;;5114854;28;20252;-32
2023/11/06 04:10:38;;;;;;;11.43;2.53;;;;;;;;;;5114961;28;20254;-33
2023/11/06 04:13:03;;;;;;;9.65;2.50;;;;;;;;;;5114935;28;20260;-35
2023/11/06 04:15:29;;;;;;;9.82;2.20;;;;;;;;;;5114926;28;20027;-34
2023/11/06 04:17:54;;;;;;;9.43;2.27;;;;;;;;;;5115490;28;20068;-35
2023/11/06 04:20:19;;;;;;;10.43;2.73;;;;;;;;;;5114862;28;20763;-33
2023/11/06 04:22:44;;;;;;;12.45;2.42;;;;;;;;;;5115454;28;20383;-35
2023/11/06 04:25:10;;;;;;;7.95;2.20;;;;;;;;;;5115083;28;20064;-33
2023/11/06 04:27:35;;;;;;;8.40;2.10;;;;;;;;;;5114792;28;20024;-34
2023/11/06 04:30:00;;;;;;;11.63;2.30;;;;;;;;;;5114672;28;20047;-33
2023/11/06 04:32:26;;;;;;;12.07;2.63;;;;;;;;;;5114713;28;20258;-36
2023/11/06 04:34:51;;;;;;;9.85;1.80;;;;;;;;;;5114935;28;20025;-35
2023/11/06 04:37:16;;;;;;;4.63;1.77;;;;;;;;;;5114634;28;20020;-35
2023/11/06 04:39:42;;;;;;;6.33;1.90;;;;;;;;;;5115027;28;20269;-34
2023/11/06 04:42:09;;;;;;;10.80;2.00;;;;;;;;;;5114490;28;20344;-35
2023/11/06 04:44:36;;;;;;;9.77;1.98;;;;;;;;;;5114490;28;20043;-36
2023/11/06 04:47:01;;;;;;;9.25;2.45;;;;;;;;;;5114387;28;20103;-35
2023/11/06 04:49:26;;;;;;;8.32;1.80;;;;;;;;;;5114392;28;20055;-34
2023/11/06 04:51:51;;;;;;;10.90;2.00;;;;;;;;;;5114291;28;20083;-33
2023/11/06 04:54:16;;;;;;;8.00;1.90;;;;;;;;;;5114861;28;20257;-35
2023/11/06 04:56:42;;;;;;;9.47;1.77;;;;;;;;;;5114283;28;20269;-36
2023/11/06 04:59:07;;;;;;;8.38;2.42;;;;;;;;;;5114899;28;20277;-34
2023/11/06 05:01:35;;;;;;;9.10;1.50;;;;;;;;;;5114741;28;20041;-34
2023/11/06 05:04:00;;;;;;;10.05;1.80;;;;;;;;;;5114200;28;20269;-35
2023/11/06 05:06:25;;;;;;;10.77;1.87;;;;;;;;;;5114147;28;20011;-34
2023/11/06 05:08:50;;;;;;;7.13;1.90;;;;;;;;;;5114622;28;20337;-33
2023/11/06 05:11:16;;;;;;;6.87;1.77;;;;;;;;;;5095780;28;20278;-36
2023/11/06 05:13:41;;;;;;;9.97;1.90;;;;;;;;;;5115120;28;20637;-34
2023/11/06 05:16:06;;;;;;;10.98;1.77;;;;;;;;;;5113896;28;20273;-35
2023/11/06 05:18:32;;;;;;;6.30;1.50;;;;;;;;;;5113857;28;20524;-36
2023/11/06 05:20:57;;;;;;;9.07;1.60;;;;;;;;;;5111884;28;20515;-35
2023/11/06 05:23:22;;;;;;;7.73;1.50;;;;;;;;;;5114504;28;20253;-35
2023/11/06 05:25:48;;;;;;;4.80;1.40;;;;;;;;;;5113838;28;20795;-34
2023/11/06 05:28:13;;;;;;;4.18;1.60;;;;;;;;;;5114153;28;20260;-35
2023/11/06 05:30:38;;;;;;;7.20;1.30;;;;;;;;;;5113869;28;20458;-35
2023/11/06 05:33:03;;;;;;;5.20;1.37;;;;;;;;;;5114405;28;20261;-36
2023/11/06 05:35:28;;;;;;;6.22;1.52;;;;;;;;;;5114050;28;20738;-36
2023/11/06 05:37:54;;;;;;;6.13;1.23;;;;;;;;;;5113991;28;20491;-32
2023/11/06 05:40:20;;;;;;;12.05;1.30;;;;;;;;;;5113922;28;20360;-36
2023/11/06 05:42:45;;;;;;;7.90;1.30;;;;;;;;;;5112711;28;20012;-34
2023/11/06 05:45:10;;;;;;;10.07;1.57;;;;;;;;;;5113759;28;20015;-36
2023/11/06 05:47:35;;;;;;;7.32;1.80;;;;;;;;;;5113954;28;20344;-35
2023/11/06 05:50:01;;;;;;;9.50;1.43;;;;;;;;;;5114192;28;20422;-35
2023/11/06 05:52:26;;;;;;;6.88;1.35;;;;;;;;;;5113438;28;20336;-34
2023/11/06 05:54:52;;;;;;;5.25;1.67;;;;;;;;;;5113663;28;20051;-35
2023/11/06 05:57:17;;;;;;;6.90;1.30;;;;;;;;;;5113833;28;20455;-34
2023/11/06 05:59:42;;;;;;;8.17;1.30;;;;;;;;;;5113481;28;20478;-33
2023/11/06 06:02:10;;;;;;;7.88;1.38;;;;;;;;;;5114072;28;20310;-34
2023/11/06 06:04:36;;;;;;;8.02;1.67;;;;;;;;;;5113429;28;20084;-36
2023/11/06 06:07:01;;;;;;;9.50;1.80;;;;;;;;;;5113525;28;20455;-33
2023/11/06 06:09:26;;;;;;;5.13;1.30;;;;;;;;;;5113790;28;20112;-34
2023/11/06 06:11:51;;;;;;;5.22;1.38;;;;;;;;;;5113434;28;20027;-34
2023/11/06 06:14:17;;;;;;;7.23;1.53;;;;;;;;;;5113758;28;20016;-34
2023/11/06 06:16:44;;;;;;;7.40;1.83;;;;;;;;;;5113630;28;20759;-36
2023/11/06 06:19:09;;;;;;;8.02;1.65;;;;;;;;;;5113567;28;20095;-35
2023/11/06 06:21:35;;;;;;;5.88;1.70;;;;;;;;;;5113531;28;20074;-33
2023/11/06 06:24:00;;;;;;;9.82;1.80;;;;;;;;;;5113657;28;20493;-33
2023/11/06 06:26:25;;;;;;;8.98;1.75;;;;;;;;;;5113312;28;20098;-35
2023/11/06 06:28:51;;;;;;;6.82;2.17;;;;;;;;;;5113368;28;20051;-33
2023/11/06 06:31:18;;;;;;;8.25;2.22;;;;;;;;;;5113696;28;20110;-34
2023/11/06 06:33:43;;;;;;;8.55;2.30;;;;;;;;;;5117282;28;20030;-33
2023/11/06 06:36:14;;;;;;;10.97;2.00;;;;;;;;;;5116875;28;20463;-36
2023/11/06 06:38:39;;;;;;;9.32;2.10;;;;;;;;;;5117044;28;20684;-36
2023/11/06 06:41:05;;;;;;;9.33;1.93;;;;;;;;;;5116866;28;20103;-33
2023/11/06 06:43:31;;;;;;;5.88;2.15;;;;;;;;;;5117375;28;20273;-33
2023/11/06 06:45:56;;;;;;;10.93;2.30;;;;;;;;;;5116986;28;20340;-36
2023/11/06 06:48:21;;;;;;;11.63;2.13;;;;;;;;;;5116769;28;20023;-34
2023/11/06 06:50:46;;;;;;;11.07;2.30;;;;;;;;;;5117190;28;20269;-35
2023/11/06 06:53:11;;;;;;;9.02;2.00;;;;;;;;;;5116489;28;20756;-34
2023/11/06 06:55:37;;;;;;;8.05;2.08;;;;;;;;;;5116826;28;20485;-33
2023/11/06 06:58:04;;;;;;;12.32;2.20;;;;;;;;;;5116507;28;20016;-33
2023/11/06 07:00:29;;;;;;;12.38;2.35;;;;;;;;;;5116571;28;20027;-34
2023/11/06 07:02:54;;;;;;;6.60;2.25;;;;;;;;;;5116604;28;20046;-34
2023/11/06 07:05:20;;;;;;;11.13;2.50;;;;;;;;;;5116297;28;20347;-36
2023/11/06 07:07:45;;;;;;;8.83;2.57;;;;;;;;;;5116869;28;20261;-35
2023/11/06 07:10:10;;;;;;;8.80;2.20;;;;;;;;;;5116320;28;20246;-36
2023/11/06 07:12:35;;;;;;;10.63;2.28;;;;;;;;;;5116395;28;20261;-35
2023/11/06 07:15:01;;;;;;;7.40;1.92;;;;;;;;;;5116190;28;20048;-33
2023/11/06 07:17:26;;;;;;;10.00;2.20;;;;;;;;;;5116112;28;20059;-34
2023/11/06 07:19:51;;;;;;;10.37;2.30;;;;;;;;;;5116334;28;20059;-35
2023/11/06 07:22:16;;;;;;;8.60;2.07;;;;;;;;;;5116072;28;20246;-33
2023/11/06 07:24:41;;;;;;;9.18;2.00;;;;;;;;;;5116621;28;20248;-33
2023/11/06 07:27:07;;;;;;;8.88;2.67;;;;;;;;;;5115944;28;20015;-33
2023/11/06 07:29:32;;;;;;;8.38;2.00;;;;;;;;;;5114528;28;20012;-33
2023/11/06 07:31:57;;;;;;;6.55;2.13;;;;;;;;;;5115706;28;20099;-36
2023/11/06 07:34:23;;;;;;;10.60;2.07;;;;;;;;;;5115752;28;20475;-35
2023/11/06 07:36:48;;;;;;;8.68;1.92;;;;;;;;;;5114064;28;20281;-33
2023/11/06 07:39:15;;;;;;;7.25;1.92;;;;;;;;;;5113738;28;20026;-35
2023/11/06 07:41:41;;;;;;;9.18;2.10;;;;;;;;;;5113477;28;20027;-35
2023/11/06 07:44:06;;;;;;;10.30;2.00;;;;;;;;;;5112005;28;20019;-33
2023/11/06 07:46:31;;;;;;;6.80;1.47;;;;;;;;;;5113378;28;20026;-38
2023/11/06 07:48:56;;;;;;;7.17;1.60;;;;;;;;;;5094954;28;20273;-35
2023/11/06 07:51:22;;;;;;;5.73;1.47;;;;;;;;;;5114222;28;20288;-36
2023/11/06 07:53:47;;;;;;;8.93;1.73;;;;;;;;;;5115541;28;20344;-35
2023/11/06 07:56:14;;;;;;;8.73;1.50;;;;;;;;;;5115137;28;20526;-35
2023/11/06 07:58:41;;;;;;;8.77;1.90;;;;;;;;;;5115439;28;20024;-35
2023/11/06 08:01:07;;;;;;;7.32;1.90;;;;;;;;;;5096845;28;20037;-35
2023/11/06 08:03:32;;;;;;;6.75;1.95;;;;;;;;;;5115165;28;20019;-35
2023/11/06 08:05:57;;;;;;;8.27;1.70;;;;;;;;;;5115407;28;20378;-35
2023/11/06 08:08:22;;;;;;;10.77;1.83;;;;;;;;;;5115028;28;20016;-33
2023/11/06 08:10:48;;;;;;;10.43;1.63;;;;;;;;;;5115068;28;20096;-35
2023/11/06 08:13:13;;;;;;;10.75;1.88;;;;;;;;;;5115507;28;20253;-36
2023/11/06 08:15:38;;;;;;;9.10;1.67;;;;;;;;;;5114934;28;20043;-36
2023/11/06 08:18:05;;;;;;;4.63;1.50;;;;;;;;;;5115429;28;20262;-35
2023/11/06 08:20:31;;;;;;;6.63;1.50;;;;;;;;;;5114851;28;20356;-34
2023/11/06 08:22:56;;;;;;;6.75;1.33;;;;;;;;;;5114715;28;20426;-35
2023/11/06 08:25:24;;;;;;;10.60;1.77;;;;;;;;;;5115419;28;20034;-34
2023/11/06 08:27:49;;;;;;;10.00;1.75;;;;;;;;;;5114720;28;20293;-35
2023/11/06 08:30:14;;;;;;;9.45;1.52;;;;;;;;;;5114971;28;20039;-34
2023/11/06 08:32:40;;;;;;;7.78;1.52;;;;;;;;;;5114712;28;20016;-33
2023/11/06 08:35:05;;;;;;;7.53;1.52;;;;;;;;;;5096398;28;20032;-35
2023/11/06 08:37:34;;;;;;;5.70;1.50;;;;;;;;;;5115330;28;20028;-35
2023/11/06 08:39:59;;;;;;;8.40;1.48;;;;;;;;;;5114410;28;20012;-35
2023/11/06 08:42:24;;;;;;;10.65;1.85;;;;;;;;;;5114792;28;20026;-35
2023/11/06 08:44:50;;;;;;;7.77;2.20;;;;;;;;;;5114781;28;20025;-33
2023/11/06 08:47:15;;;;;;;6.80;1.38;;;;;;;;;;5096513;28;20285;-35
2023/11/06 08:49:40;;;;;;;5.68;1.70;;;;;;;;;;5096043;28;20026;-35
2023/11/06 08:52:06;;;;;;;8.05;1.88;;;;;;;;;;5095972;28;20134;-35
2023/11/06 08:54:31;;;;;;;9.03;1.80;;;;;;;;;;5095942;28;20060;-33
2023/11/06 08:56:59;;;;;;;5.47;1.70;;;;;;;;;;5114534;28;20266;-33
2023/11/06 08:59:24;;;;;;;6.30;1.80;;;;;;;;;;5114708;28;20272;-35
2023/11/06 09:01:49;;;;;;;12.40;2.20;;;;;;;;;;5114653;28;20016;-34
2023/11/06 09:04:15;;;;;;;12.68;1.92;;;;;;;;;;5114005;28;20827;-35
2023/11/06 09:06:40;;;;;;;9.00;1.55;;;;;;;;;;5114041;28;20316;-34
2023/11/06 09:09:09;;;;;;;9.40;2.70;;;;;;;;;;5114375;28;20111;-36
2023/11/06 09:11:38;;;;;;;10.57;1.92;;;;;;;;;;5114270;28;20016;-34
2023/11/06 09:14:04;;;;;;;9.90;2.40;;;;;;;;;;5113671;28;20016;-35
2023/11/06 09:16:31;;;;;;;10.00;1.88;;;;;;;;;;5114021;28;20027;-34
2023/11/06 09:18:56;;;;;;;11.15;2.20;;;;;;;;;;5113784;28;20027;-36
2023/11/06 09:21:22;;;;;;;9.70;2.37;;;;;;;;;;5113040;28;20028;-35
2023/11/06 09:23:47;;;;;;;10.43;2.53;;;;;;;;;;5113923;28;20241;-36
2023/11/06 09:26:12;;;;;;;12.90;2.53;;;;;;;;;;5114495;28;20007;-33
2023/11/06 09:28:38;;;;;;;11.35;2.10;;;;;;;;;;5113841;28;20012;-35
2023/11/06 09:31:04;;;;;;;10.38;2.50;;;;;;;;;;5095544;28;20015;-36
2023/11/06 09:33:29;;;;;;;10.30;2.50;;;;;;;;;;5114015;28;20031;-35
2023/11/06 09:35:54;;;;;;;8.30;2.30;;;;;;;;;;5113778;28;20441;-35
2023/11/06 09:38:19;;;;;;;9.53;2.40;;;;;;;;;;5114301;28;20076;-35
2023/11/06 09:40:45;;;;;;;9.10;2.30;;;;;;;;;;5114187;28;20039;-33
2023/11/06 09:43:11;;;;;;;8.32;2.33;;;;;;;;;;5113908;28;20038;-33
2023/11/06 09:45:36;;;;;;;10.10;2.42;;;;;;;;;;5113598;28;20370;-33
2023/11/06 09:48:04;;;;;;;9.90;2.33;;;;;;;;;;5114236;28;20020;-36
2023/11/06 09:50:30;;;;;;;8.43;2.17;;;;;;;;;;5113868;28;20373;-35
2023/11/06 09:52:56;;;;;;;7.88;1.92;;;;;;;;;;5113382;28;20509;-33
2023/11/06 09:55:21;;;;;;;9.18;2.25;;;;;;;;;;5113617;28;20023;-34
2023/11/06 09:57:50;;;;;;;8.98;2.13;;;;;;;;;;5113775;28;20047;-36
2023/11/06 10:00:16;;;;;;;7.90;1.90;;;;;;;;;;5113451;28;20042;-34
2023/11/06 10:02:44;;;;;;;8.75;2.03;;;;;;;;;;5113494;28;20024;-35
2023/11/06 10:05:14;;;;;;;11.30;1.88;;;;;;;;;;5113818;28;20061;-36
2023/11/06 10:07:40;;;;;;;10.40;2.05;;;;;;;;;;5117101;28;20477;-33
2023/11/06 10:10:11;;;;;;;8.27;1.98;;;;;;;;;;5117688;28;20387;-34
2023/11/06 10:12:37;;;;;;;8.90;1.77;;;;;;;;;;5117268;28;20047;-35
2023/11/06 10:15:03;;;;;;;9.03;1.90;;;;;;;;;;5117601;28;20062;-37
2023/11/06 10:17:28;;;;;;;8.27;2.03;;;;;;;;;;5117494;28;20342;-33
2023/11/06 10:20:05;;;;;;;10.73;1.90;;;;;;;;;;5117440;28;20016;-35
2023/11/06 10:22:30;;;;;;;12.93;1.85;;;;;;;;;;5117409;28;20050;-35
2023/11/06 10:24:55;;;;;;;11.23;2.07;;;;;;;;;;5117192;28;20016;-36
2023/11/06 10:27:24;;;;;;;10.38;2.08;;;;;;;;;;5117345;28;20254;-34
2023/11/06 10:29:58;;;;;;;12.40;1.83;;;;;;;;;;5116938;28;20134;-35
2023/11/06 10:32:25;;;;;;;8.88;1.98;;;;;;;;;;5117309;28;20028;-36
2023/11/06 10:34:50;;;;;;;7.63;1.95;;;;;;;;;;5117686;28;20047;-33
2023/11/06 10:37:15;;;;;;;11.77;1.93;;;;;;;;;;5098696;28;20066;-36
2023/11/06 10:39:41;;;;;;;8.68;1.70;;;;;;;;;;5116783;28;20601;-34
2023/11/06 10:42:09;;;;;;;6.15;1.73;;;;;;;;;;5116899;28;20016;-36
2023/11/06 10:44:34;;;;;;;13.35;1.83;;;;;;;;;;5116992;28;20375;-33
2023/11/06 10:47:04;;;;;;;12.88;1.85;;;;;;;;;;5116909;28;20020;-35
2023/11/06 10:49:33;;;;;;;9.95;1.67;;;;;;;;;;5116721;28;20081;-32
2023/11/06 10:51:59;;;;;;;16.75;1.98;;;;;;;;;;5116565;28;20043;-33
2023/11/06 10:54:25;;;;;;;9.02;1.65;;;;;;;;;;5116608;28;20515;-35
2023/11/06 10:56:52;;;;;;;8.20;1.65;;;;;;;;;;5116556;28;20431;-34
2023/11/06 10:59:18;;;;;;;9.02;1.95;;;;;;;;;;5116288;28;20106;-36
2023/11/06 11:01:43;;;;;;;15.15;1.80;;;;;;;;;;5116827;28;20140;-32
2023/11/06 11:04:10;;;;;;;10.75;2.25;;;;;;;;;;5116473;28;20020;-34
2023/11/06 11:06:35;;;;;;;7.70;1.75;;;;;;;;;;5116553;28;20023;-34
2023/11/06 11:09:01;;;;;;;7.55;1.85;;;;;;;;;;5116417;28;20106;-36
2023/11/06 11:11:26;;;;;;;11.63;2.05;;;;;;;;;;5116709;28;20016;-34
2023/11/06 11:13:52;;;;;;;9.05;2.03;;;;;;;;;;5116811;28;20019;-35
2023/11/06 11:16:50;;;;;;;6.80;1.77;;;;;;;;;;5116495;28;20031;-35
2023/11/06 11:19:20;;;;;;;14.55;2.10;;;;;;;;;;5099731;28;20119;-34
2023/11/06 11:21:58;;;;;;;11.25;1.95;;;;;;;;;;5116345;28;20007;-34
2023/11/06 11:24:39;;;;;;;9.15;1.80;;;;;;;;;;5116127;28;20024;-34
2023/11/06 11:27:11;;;;;;;9.80;1.85;;;;;;;;;;5115792;28;20090;-34
2023/11/06 11:29:51;;;;;;;6.40;1.33;;;;;;;;;;5116267;28;20028;-34
2023/11/06 11:32:19;;;;;;;6.40;1.60;;;;;;;;;;5115933;28;20023;-33
2023/11/06 11:34:44;;;;;;;4.82;1.10;;;;;;;;;;5115869;28;20054;-36
2023/11/06 11:37:35;;;;;;;6.40;1.30;;;;;;;;;;5116400;28;20051;-35
2023/11/06 11:40:02;;;;;;;11.80;2.17;;;;;;;;;;5115805;28;20273;-35
2023/11/06 11:42:28;;;;;;;8.23;1.50;;;;;;;;;;5115940;28;20011;-33
2023/11/06 11:44:53;;;;;;;9.23;1.65;;;;;;;;;;5116117;28;20087;-36
2023/11/06 11:47:18;;;;;;;8.07;1.50;;;;;;;;;;5115940;28;20066;-35
2023/11/06 11:49:47;;;;;;;8.60;1.77;;;;;;;;;;5097328;28;20274;-34
2023/11/06 11:52:13;;;;;;;8.23;1.33;;;;;;;;;;5115525;28;20745;-31
2023/11/06 11:54:39;;;;;;;6.43;1.42;;;;;;;;;;5115313;28;20023;-36
2023/11/06 11:57:05;;;;;;;3.47;1.20;;;;;;;;;;5115685;28;20028;-34
2023/11/06 11:59:40;;;;;;;6.13;1.35;;;;;;;;;;5115591;28;20019;-36
2023/11/06 12:02:23;;;;;;;8.65;1.27;;;;;;;;;;5096967;28;20051;-34
2023/11/06 12:04:48;;;;;;;7.30;1.60;;;;;;;;;;5115514;28;20024;-34
2023/11/06 12:07:15;;;;;;;4.87;1.40;;;;;;;;;;5115247;28;20462;-36
2023/11/06 12:09:46;;;;;;;7.28;1.52;;;;;;;;;;5115162;28;20270;-35
2023/11/06 12:12:16;;;;;;;12.57;1.98;;;;;;;;;;5115339;28;20030;-35
2023/11/06 12:14:41;;;;;;;7.63;1.77;;;;;;;;;;5115074;28;20028;-34
2023/11/06 12:17:06;;;;;;;14.38;1.98;;;;;;;;;;5115253;28;20065;-34
2023/11/06 12:19:38;;;;;;;8.63;1.80;;;;;;;;;;5115246;28;20090;-33
2023/11/06 12:22:04;;;;;;;6.67;1.93;;;;;;;;;;5114839;28;20310;-34
2023/11/06 12:24:29;;;;;;;8.30;1.92;;;;;;;;;;5115157;28;20253;-35
2023/11/06 12:26:55;;;;;;;8.93;1.60;;;;;;;;;;5114998;28;20016;-35
2023/11/06 12:29:25;;;;;;;9.98;1.95;;;;;;;;;;5114969;28;20596;-33
2023/11/06 12:31:50;;;;;;;8.75;2.58;;;;;;;;;;5114737;28;20051;-34
2023/11/06 12:34:20;;;;;;;9.17;1.63;;;;;;;;;;5114643;28;20109;-35
2023/11/06 12:36:45;;;;;;;10.30;2.17;;;;;;;;;;5114545;28;20303;-35
2023/11/06 12:39:23;;;;;;;5.47;1.58;;;;;;;;;;5096559;28;20080;-35
2023/11/06 12:41:58;;;;;;;10.48;1.83;;;;;;;;;;5114477;28;20044;-36
2023/11/06 12:44:39;;;;;;;6.82;1.80;;;;;;;;;;5114756;28;20024;-35
2023/11/06 12:47:10;;;;;;;8.00;2.03;;;;;;;;;;5114398;28;20012;-36
2023/11/06 12:49:48;;;;;;;9.13;2.50;;;;;;;;;;5113815;28;20083;-36
2023/11/06 12:52:17;;;;;;;7.60;2.08;;;;;;;;;;5114160;28;20059;-32
2023/11/06 12:54:42;;;;;;;8.52;1.70;;;;;;;;;;5114240;28;20023;-35
2023/11/06 12:57:10;;;;;;;8.57;2.27;;;;;;;;;;5114675;28;20016;-35
2023/11/06 12:59:35;;;;;;;4.72;1.42;;;;;;;;;;5114463;28;20624;-34
2023/11/06 13:02:00;;;;;;;9.02;1.70;;;;;;;;;;5113669;28;20019;-33
2023/11/06 13:04:26;;;;;;;6.20;1.90;;;;;;;;;;5095781;28;20387;-34
2023/11/06 13:06:52;;;;;;;8.07;1.50;;;;;;;;;;5114424;28;20249;-34
2023/11/06 13:09:18;;;;;;;9.23;1.88;;;;;;;;;;5114151;28;20068;-34
2023/11/06 13:11:43;;;;;;;4.57;1.52;;;;;;;;;;5113982;28;20023;-35
2023/11/06 13:14:08;;;;;;;6.40;1.73;;;;;;;;;;5114582;28;20098;-34
2023/11/06 13:16:36;;;;;;;9.80;1.95;;;;;;;;;;5114531;28;20099;-35
2023/11/06 13:19:04;;;;;;;7.80;1.85;;;;;;;;;;5114187;28;20485;-35
2023/11/06 13:21:32;;;;;;;6.97;2.00;;;;;;;;;;5113875;28;20020;-34
2023/11/06 13:23:57;;;;;;;6.50;1.50;;;;;;;;;;5113824;28;20026;-35
2023/11/06 13:26:22;;;;;;;10.05;1.92;;;;;;;;;;5113820;28;20012;-33
2023/11/06 13:28:51;;;;;;;5.70;1.40;;;;;;;;;;5113826;28;20019;-35
2023/11/06 13:31:16;;;;;;;5.82;1.58;;;;;;;;;;5114086;28;20388;-38
2023/11/06 13:33:44;;;;;;;11.27;1.92;;;;;;;;;;5095619;28;20110;-35
2023/11/06 13:36:12;;;;;;;3.35;1.10;;;;;;;;;;5114028;28;20419;-34
2023/11/06 13:38:38;;;;;;;11.05;1.85;;;;;;;;;;5113666;28;20091;-34
2023/11/06 13:41:10;;;;;;;6.10;1.52;;;;;;;;;;5114781;28;20474;-35
2023/11/06 13:43:38;;;;;;;7.13;1.40;;;;;;;;;;5118297;28;20429;-35
2023/11/06 13:46:04;;;;;;;4.47;1.35;;;;;;;;;;5100114;28;20076;-35
2023/11/06 13:48:29;;;;;;;12.60;1.38;;;;;;;;;;5117923;28;20432;-38
2023/11/06 13:50:59;;;;;;;4.13;1.50;;;;;;;;;;5118456;28;20015;-38
2023/11/06 13:53:25;;;;;;;7.10;1.38;;;;;;;;;;5118302;28;20276;-38
2023/11/06 13:56:04;;;;;;;7.68;1.85;;;;;;;;;;5118042;28;20027;-38
2023/11/06 13:58:29;;;;;;;6.88;1.52;;;;;;;;;;5118020;28;20019;-38
2023/11/06 14:01:07;;;;;;;7.88;1.63;;;;;;;;;;5099369;28;20019;-38
2023/11/06 14:03:33;;;;;;;9.43;1.50;;;;;;;;;;5117570;28;20012;-38
2023/11/06 14:05:58;;;;;;;10.30;1.40;;;;;;;;;;5117802;28;20026;-37
2023/11/06 14:08:24;;;;;;;5.53;1.42;;;;;;;;;;5117837;28;20012;-38
2023/11/06 14:10:50;;;;;;;8.00;1.75;;;;;;;;;;5118056;28;20024;-38
2023/11/06 14:13:21;;;;;;;9.55;1.67;;;;;;;;;;5117355;28;20024;-38
2023/11/06 14:15:50;;;;;;;9.68;1.65;;;;;;;;;;5117587;28;20026;-38
2023/11/06 14:18:16;;;;;;;8.10;1.60;;;;;;;;;;5118036;28;20034;-38
2023/11/06 14:20:42;;;;;;;6.22;1.65;;;;;;;;;;5117168;28;20016;-37
2023/11/06 14:23:07;;;;;;;5.70;1.70;;;;;;;;;;5117806;28;20016;-38
2023/11/06 14:25:32;;;;;;;3.92;1.45;;;;;;;;;;5117443;28;20256;-38
2023/11/06 14:27:59;;;;;;;7.80;1.60;;;;;;;;;;5117236;28;20016;-38
2023/11/06 14:30:25;;;;;;;4.22;1.50;;;;;;;;;;5117123;28;20252;-37
2023/11/06 14:32:51;;;;;;;5.78;1.60;;;;;;;;;;5117328;28;20098;-38